sensor_id;sensor_type;location;lat;lon;timestamp;pressure;altitude;pressure_sealevel;temperature;humidity
20909;BME280;10614;53.198;6.570;2023-05-31T00:00:39;102855.00;;;10.62;100.00
20909;BME280;10614;53.198;6.570;2023-05-31T00:02:40;102855.91;;;10.61;100.00
20909;BME280;10614;53.198;6.570;2023-05-31T00:04:42;102838.38;;;10.55;100.00
20909;BME280;10614;53.198;6.570;2023-05-31T00:06:44;102836.66;;;10.53;100.00
20909;BME280;10614;53.198;6.570;2023-05-31T00:08:46;102843.63;;;10.59;100.00
20909;BME280;10614;53.198;6.570;2023-05-31T00:10:48;102855.91;;;10.60;100.00
20909;BME280;10614;53.198;6.570;2023-05-31T00:12:51;102837.50;;;10.53;100.00
20909;BME280;10614;53.198;6.570;2023-05-31T00:14:53;102833.19;;;10.49;100.00
20909;BME280;10614;53.198;6.570;2023-05-31T00:16:55;102840.19;;;10.52;100.00
20909;BME280;10614;53.198;6.570;2023-05-31T00:18:56;102838.44;;;10.49;100.00
20909;BME280;10614;53.198;6.570;2023-05-31T00:20:58;102835.78;;;10.51;100.00
20909;BME280;10614;53.198;6.570;2023-05-31T00:23:00;102829.69;;;10.47;100.00
20909;BME280;10614;53.198;6.570;2023-05-31T00:25:03;102834.94;;;10.47;100.00
20909;BME280;10614;53.198;6.570;2023-05-31T00:27:05;102834.94;;;10.46;100.00
20909;BME280;10614;53.198;6.570;2023-05-31T00:29:09;102830.63;;;10.40;100.00
20909;BME280;10614;53.198;6.570;2023-05-31T00:31:11;102825.34;;;10.40;100.00
20909;BME280;10614;53.198;6.570;2023-05-31T00:33:13;102824.50;;;10.35;100.00
20909;BME280;10614;53.198;6.570;2023-05-31T00:35:14;102822.72;;;10.39;100.00
20909;BME280;10614;53.198;6.570;2023-05-31T00:37:16;102814.81;;;10.37;100.00
20909;BME280;10614;53.198;6.570;2023-05-31T00:39:18;102819.25;;;10.35;100.00
20909;BME280;10614;53.198;6.570;2023-05-31T00:41:20;102818.34;;;10.36;100.00
20909;BME280;10614;53.198;6.570;2023-05-31T00:43:22;102817.53;;;10.31;100.00
20909;BME280;10614;53.198;6.570;2023-05-31T00:45:25;102786.91;;;10.13;100.00
20909;BME280;10614;53.198;6.570;2023-05-31T00:47:29;102810.47;;;10.27;100.00
20909;BME280;10614;53.198;6.570;2023-05-31T00:49:31;102817.53;;;10.31;100.00
20909;BME280;10614;53.198;6.570;2023-05-31T00:51:35;102823.69;;;10.28;100.00
20909;BME280;10614;53.198;6.570;2023-05-31T00:53:38;102808.78;;;10.21;100.00
20909;BME280;10614;53.198;6.570;2023-05-31T00:55:41;102819.28;;;10.23;100.00
20909;BME280;10614;53.198;6.570;2023-05-31T00:57:43;102817.53;;;10.20;100.00
20909;BME280;10614;53.198;6.570;2023-05-31T00:59:45;102825.41;;;10.25;100.00
20909;BME280;10614;53.198;6.570;2023-05-31T01:01:49;102821.94;;;10.20;100.00
20909;BME280;10614;53.198;6.570;2023-05-31T01:03:51;102819.34;;;10.15;100.00
20909;BME280;10614;53.198;6.570;2023-05-31T01:05:54;102843.00;;;10.21;100.00
20909;BME280;10614;53.198;6.570;2023-05-31T01:07:57;102836.00;;;10.15;100.00
20909;BME280;10614;53.198;6.570;2023-05-31T01:10:00;102834.22;;;10.18;100.00
20909;BME280;10614;53.198;6.570;2023-05-31T01:12:13;102836.91;;;10.16;100.00
20909;BME280;10614;53.198;6.570;2023-05-31T01:14:22;102831.63;;;10.14;100.00
20909;BME280;10614;53.198;6.570;2023-05-31T01:16:33;102829.03;;;10.11;100.00
20909;BME280;10614;53.198;6.570;2023-05-31T01:18:42;102829.03;;;10.08;100.00
20909;BME280;10614;53.198;6.570;2023-05-31T01:20:49;102827.28;;;10.12;100.00
20909;BME280;10614;53.198;6.570;2023-05-31T01:23:00;102819.41;;;10.04;100.00
20909;BME280;10614;53.198;6.570;2023-05-31T01:25:25;102829.94;;;10.07;100.00
20909;BME280;10614;53.198;6.570;2023-05-31T01:27:29;102820.28;;;10.03;100.00
20909;BME280;10614;53.198;6.570;2023-05-31T01:29:34;102824.66;;;10.04;100.00
20909;BME280;10614;53.198;6.570;2023-05-31T01:31:37;102808.94;;;9.98;100.00
20909;BME280;10614;53.198;6.570;2023-05-31T01:33:41;102818.56;;;10.01;100.00
20909;BME280;10614;53.198;6.570;2023-05-31T01:35:44;102817.69;;;10.00;100.00
20909;BME280;10614;53.198;6.570;2023-05-31T01:37:46;102816.84;;;9.95;100.00
20909;BME280;10614;53.198;6.570;2023-05-31T01:39:48;102815.97;;;9.96;100.00
20909;BME280;10614;53.198;6.570;2023-05-31T01:41:52;102796.75;;;9.80;100.00
20909;BME280;10614;53.198;6.570;2023-05-31T01:43:56;102829.09;;;9.99;100.00
20909;BME280;10614;53.198;6.570;2023-05-31T01:46:01;102833.47;;;9.97;100.00
20909;BME280;10614;53.198;6.570;2023-05-31T01:48:05;102837.00;;;9.96;100.00
20909;BME280;10614;53.198;6.570;2023-05-31T01:50:08;102840.53;;;9.95;100.00
20909;BME280;10614;53.198;6.570;2023-05-31T01:52:14;102822.19;;;9.81;100.00
20909;BME280;10614;53.198;6.570;2023-05-31T01:54:17;102845.78;;;9.92;100.00
20909;BME280;10614;53.198;6.570;2023-05-31T01:56:20;102837.91;;;9.87;100.00
20909;BME280;10614;53.198;6.570;2023-05-31T01:58:22;102840.53;;;9.92;100.00
20909;BME280;10614;53.198;6.570;2023-05-31T02:00:27;102841.38;;;9.92;100.00
20909;BME280;10614;53.198;6.570;2023-05-31T02:02:30;102814.31;;;9.75;100.00
20909;BME280;10614;53.198;6.570;2023-05-31T02:04:32;102848.44;;;9.90;100.00
20909;BME280;10614;53.198;6.570;2023-05-31T02:06:35;102844.03;;;9.88;100.00
20909;BME280;10614;53.198;6.570;2023-05-31T02:08:37;102828.34;;;9.79;100.00
20909;BME280;10614;53.198;6.570;2023-05-31T02:10:39;102838.81;;;9.86;100.00
20909;BME280;10614;53.198;6.570;2023-05-31T02:12:41;102836.19;;;9.86;100.00
20909;BME280;10614;53.198;6.570;2023-05-31T02:14:43;102844.09;;;9.83;100.00
20909;BME280;10614;53.198;6.570;2023-05-31T02:16:46;102795.09;;;9.59;100.00
20909;BME280;10614;53.198;6.570;2023-05-31T02:18:50;102840.59;;;9.81;100.00
20909;BME280;10614;53.198;6.570;2023-05-31T02:20:52;102832.72;;;9.77;100.00
20909;BME280;10614;53.198;6.570;2023-05-31T02:22:54;102850.22;;;9.84;100.00
20909;BME280;10614;53.198;6.570;2023-05-31T02:24:56;102834.47;;;9.78;100.00
20909;BME280;10614;53.198;6.570;2023-05-31T02:26:58;102844.09;;;9.83;100.00
20909;BME280;10614;53.198;6.570;2023-05-31T02:29:02;102848.47;;;9.81;100.00
20909;BME280;10614;53.198;6.570;2023-05-31T02:31:04;102846.72;;;9.80;100.00
20909;BME280;10614;53.198;6.570;2023-05-31T02:33:07;102850.25;;;9.78;100.00
20909;BME280;10614;53.198;6.570;2023-05-31T02:35:10;102847.59;;;9.78;100.00
20909;BME280;10614;53.198;6.570;2023-05-31T02:37:12;102848.50;;;9.77;100.00
20909;BME280;10614;53.198;6.570;2023-05-31T02:39:14;102844.13;;;9.74;100.00
20909;BME280;10614;53.198;6.570;2023-05-31T02:41:16;102837.16;;;9.67;100.00
20909;BME280;10614;53.198;6.570;2023-05-31T02:43:18;102845.91;;;9.66;100.00
20909;BME280;10614;53.198;6.570;2023-05-31T02:45:19;102852.03;;;9.68;100.00
20909;BME280;10614;53.198;6.570;2023-05-31T02:47:22;102843.31;;;9.63;100.00
20909;BME280;10614;53.198;6.570;2023-05-31T02:49:25;102845.94;;;9.63;100.00
20909;BME280;10614;53.198;6.570;2023-05-31T02:51:27;102846.81;;;9.60;100.00
20909;BME280;10614;53.198;6.570;2023-05-31T02:53:28;102847.69;;;9.62;100.00
20909;BME280;10614;53.198;6.570;2023-05-31T02:55:31;102846.78;;;9.62;100.00
20909;BME280;10614;53.198;6.570;2023-05-31T02:57:33;102840.66;;;9.60;100.00
20909;BME280;10614;53.198;6.570;2023-05-31T03:08:21;102801.34;;;9.30;100.00
20909;BME280;10614;53.198;6.570;2023-05-31T03:10:42;102782.13;;;9.16;100.00
20909;BME280;10614;53.198;6.570;2023-05-31T03:24:50;102846.84;;;9.54;100.00
20909;BME280;10614;53.198;6.570;2023-05-31T03:26:52;102848.63;;;9.50;100.00
20909;BME280;10614;53.198;6.570;2023-05-31T03:28:55;102844.22;;;9.49;100.00
20909;BME280;10614;53.198;6.570;2023-05-31T03:30:57;102833.72;;;9.51;100.00
20909;BME280;10614;53.198;6.570;2023-05-31T03:32:58;102835.44;;;9.52;100.00
20909;BME280;10614;53.198;6.570;2023-05-31T03:35:00;102831.94;;;9.53;100.00
20909;BME280;10614;53.198;6.570;2023-05-31T03:37:02;102845.94;;;9.58;100.00
20909;BME280;10614;53.198;6.570;2023-05-31T03:39:04;102838.94;;;9.54;100.00
20909;BME280;10614;53.198;6.570;2023-05-31T03:41:07;102843.31;;;9.55;100.00
20909;BME280;10614;53.198;6.570;2023-05-31T03:43:09;102855.56;;;9.59;100.00
20909;BME280;10614;53.198;6.570;2023-05-31T03:45:11;102845.06;;;9.59;100.00
20909;BME280;10614;53.198;6.570;2023-05-31T03:47:13;102847.72;;;9.56;100.00
20909;BME280;10614;53.198;6.570;2023-05-31T03:49:16;102849.44;;;9.57;100.00
20909;BME280;10614;53.198;6.570;2023-05-31T03:51:18;102859.06;;;9.63;100.00
20909;BME280;10614;53.198;6.570;2023-05-31T03:53:19;102809.22;;;9.40;100.00
20909;BME280;10614;53.198;6.570;2023-05-31T03:55:21;102852.94;;;9.65;100.00
20909;BME280;10614;53.198;6.570;2023-05-31T03:57:26;102852.03;;;9.68;100.00
20909;BME280;10614;53.198;6.570;2023-05-31T03:59:28;102853.78;;;9.69;100.00
20909;BME280;10614;53.198;6.570;2023-05-31T04:01:30;102852.91;;;9.70;100.00
20909;BME280;10614;53.198;6.570;2023-05-31T04:03:32;102855.50;;;9.71;100.00
20909;BME280;10614;53.198;6.570;2023-05-31T04:05:37;102855.53;;;9.73;100.00
20909;BME280;10614;53.198;6.570;2023-05-31T04:07:39;102850.25;;;9.75;100.00
20909;BME280;10614;53.198;6.570;2023-05-31T04:09:41;102857.25;;;9.77;100.00
20909;BME280;10614;53.198;6.570;2023-05-31T04:11:43;102856.38;;;9.78;100.00
20909;BME280;10614;53.198;6.570;2023-05-31T04:13:46;102838.88;;;9.72;100.00
20909;BME280;10614;53.198;6.570;2023-05-31T04:15:48;102850.25;;;9.79;100.00
20909;BME280;10614;53.198;6.570;2023-05-31T04:17:49;102856.38;;;9.78;100.00
20909;BME280;10614;53.198;6.570;2023-05-31T04:19:51;102849.31;;;9.85;100.00
20909;BME280;10614;53.198;6.570;2023-05-31T04:21:53;102847.59;;;9.82;100.00
20909;BME280;10614;53.198;6.570;2023-05-31T04:23:55;102859.81;;;9.92;100.00
20909;BME280;10614;53.198;6.570;2023-05-31T04:25:57;102859.81;;;9.96;100.00
20909;BME280;10614;53.198;6.570;2023-05-31T04:28:00;102858.91;;;10.00;100.00
20909;BME280;10614;53.198;6.570;2023-05-31T04:30:08;102860.66;;;10.02;100.00
20909;BME280;10614;53.198;6.570;2023-05-31T04:32:10;102850.13;;;10.01;100.00
20909;BME280;10614;53.198;6.570;2023-05-31T04:34:14;102853.59;;;10.07;100.00
20909;BME280;10614;53.198;6.570;2023-05-31T04:36:18;102852.72;;;10.11;100.00
20909;BME280;10614;53.198;6.570;2023-05-31T04:38:20;102856.19;;;10.15;100.00
20909;BME280;10614;53.198;6.570;2023-05-31T04:40:27;102846.53;;;10.15;100.00
20909;BME280;10614;53.198;6.570;2023-05-31T04:42:32;102860.53;;;10.22;100.00
20909;BME280;10614;53.198;6.570;2023-05-31T04:44:34;102841.22;;;10.20;100.00
20909;BME280;10614;53.198;6.570;2023-05-31T04:46:38;102854.38;;;10.28;100.00
20909;BME280;10614;53.198;6.570;2023-05-31T04:48:41;102857.00;;;10.32;100.00
20909;BME280;10614;53.198;6.570;2023-05-31T04:50:45;102850.84;;;10.33;100.00
20909;BME280;10614;53.198;6.570;2023-05-31T04:52:48;102853.44;;;10.37;100.00
20909;BME280;10614;53.198;6.570;2023-05-31T04:54:52;102814.03;;;10.21;100.00
20909;BME280;10614;53.198;6.570;2023-05-31T04:56:54;102826.25;;;10.34;100.00
20909;BME280;10614;53.198;6.570;2023-05-31T04:58:56;102829.78;;;10.35;100.00
20909;BME280;10614;53.198;6.570;2023-05-31T05:00:58;102856.88;;;10.49;100.00
20909;BME280;10614;53.198;6.570;2023-05-31T05:03:01;102862.94;;;10.57;100.00
20909;BME280;10614;53.198;6.570;2023-05-31T05:05:04;102856.78;;;10.60;100.00
20909;BME280;10614;53.198;6.570;2023-05-31T05:07:07;102850.69;;;10.56;100.00
20909;BME280;10614;53.198;6.570;2023-05-31T05:09:09;102861.97;;;10.69;100.00
20909;BME280;10614;53.198;6.570;2023-05-31T05:11:11;102854.97;;;10.68;100.00
20909;BME280;10614;53.198;6.570;2023-05-31T05:13:13;102814.69;;;10.55;100.00
20909;BME280;10614;53.198;6.570;2023-05-31T05:15:16;102855.72;;;10.81;100.00
20909;BME280;10614;53.198;6.570;2023-05-31T05:17:18;102844.34;;;10.77;100.00
20909;BME280;10614;53.198;6.570;2023-05-31T05:19:22;102846.97;;;10.79;100.00
20909;BME280;10614;53.198;6.570;2023-05-31T05:21:24;102862.69;;;10.91;100.00
20909;BME280;10614;53.198;6.570;2023-05-31T05:23:26;102862.66;;;10.93;100.00
20909;BME280;10614;53.198;6.570;2023-05-31T05:25:28;102856.47;;;10.95;100.00
20909;BME280;10614;53.198;6.570;2023-05-31T05:27:30;102856.41;;;11.02;100.00
20909;BME280;10614;53.198;6.570;2023-05-31T05:29:32;102860.78;;;11.06;100.00
20909;BME280;10614;53.198;6.570;2023-05-31T05:31:34;102862.50;;;11.08;100.00
20909;BME280;10614;53.198;6.570;2023-05-31T05:33:36;102860.66;;;11.16;100.00
20909;BME280;10614;53.198;6.570;2023-05-31T05:35:39;102860.66;;;11.18;100.00
20909;BME280;10614;53.198;6.570;2023-05-31T05:37:41;102854.47;;;11.20;100.00
20909;BME280;10614;53.198;6.570;2023-05-31T05:39:43;102862.34;;;11.25;100.00
20909;BME280;10614;53.198;6.570;2023-05-31T05:41:44;102840.38;;;11.23;100.00
20909;BME280;10614;53.198;6.570;2023-05-31T05:43:46;102855.22;;;11.33;100.00
20909;BME280;10614;53.198;6.570;2023-05-31T05:45:48;102863.97;;;11.38;100.00
20909;BME280;10614;53.198;6.570;2023-05-31T05:47:50;102863.00;;;11.44;100.00
20909;BME280;10614;53.198;6.570;2023-05-31T05:49:52;102851.53;;;11.47;100.00
20909;BME280;10614;53.198;6.570;2023-05-31T05:51:55;102865.53;;;11.52;100.00
20909;BME280;10614;53.198;6.570;2023-05-31T05:53:57;102841.00;;;11.48;100.00
20909;BME280;10614;53.198;6.570;2023-05-31T05:55:59;102856.66;;;11.60;100.00
20909;BME280;10614;53.198;6.570;2023-05-31T05:58:01;102853.09;;;11.63;100.00
20909;BME280;10614;53.198;6.570;2023-05-31T06:00:05;102835.56;;;11.60;100.00
20909;BME280;10614;53.198;6.570;2023-05-31T06:02:11;102838.06;;;11.71;100.00
20909;BME280;10614;53.198;6.570;2023-05-31T06:04:13;102827.69;;;11.59;100.00
20909;BME280;10614;53.198;6.570;2023-05-31T06:06:15;102831.09;;;11.67;100.00
20909;BME280;10614;53.198;6.570;2023-05-31T06:08:19;102848.44;;;11.88;100.00
20909;BME280;10614;53.198;6.570;2023-05-31T06:10:20;102844.88;;;11.89;100.00
20909;BME280;10614;53.198;6.570;2023-05-31T06:12:22;102850.97;;;11.96;100.00
20909;BME280;10614;53.198;6.570;2023-05-31T06:14:25;102847.41;;;11.98;100.00
20909;BME280;10614;53.198;6.570;2023-05-31T06:16:27;102845.56;;;12.05;100.00
20909;BME280;10614;53.198;6.570;2023-05-31T06:18:28;102841.06;;;12.10;100.00
20909;BME280;10614;53.198;6.570;2023-05-31T06:20:31;102847.19;;;12.14;100.00
20909;BME280;10614;53.198;6.570;2023-05-31T06:22:32;102849.78;;;12.17;100.00
20909;BME280;10614;53.198;6.570;2023-05-31T06:24:36;102843.56;;;12.22;100.00
20909;BME280;10614;53.198;6.570;2023-05-31T06:26:37;102844.34;;;12.28;100.00
20909;BME280;10614;53.198;6.570;2023-05-31T06:28:39;102847.78;;;12.33;100.00
20909;BME280;10614;53.198;6.570;2023-05-31T06:30:41;102840.75;;;12.33;100.00
20909;BME280;10614;53.198;6.570;2023-05-31T06:32:43;102846.00;;;12.36;100.00
20909;BME280;10614;53.198;6.570;2023-05-31T06:34:46;102845.84;;;12.45;100.00
20909;BME280;10614;53.198;6.570;2023-05-31T06:36:47;102843.22;;;12.44;100.00
20909;BME280;10614;53.198;6.570;2023-05-31T06:38:49;102843.09;;;12.50;100.00
20909;BME280;10614;53.198;6.570;2023-05-31T06:40:53;102845.66;;;12.56;100.00
20909;BME280;10614;53.198;6.570;2023-05-31T06:42:55;102842.13;;;12.57;100.00
20909;BME280;10614;53.198;6.570;2023-05-31T06:44:57;102843.84;;;12.60;100.00
20909;BME280;10614;53.198;6.570;2023-05-31T06:47:00;102828.09;;;12.54;100.00
20909;BME280;10614;53.198;6.570;2023-05-31T06:49:02;102858.59;;;12.73;100.00
20909;BME280;10614;53.198;6.570;2023-05-31T06:51:04;102855.91;;;12.76;100.00
20909;BME280;10614;53.198;6.570;2023-05-31T06:53:08;102845.34;;;12.76;100.00
20909;BME280;10614;53.198;6.570;2023-05-31T06:55:13;102826.94;;;12.70;100.00
20909;BME280;10614;53.198;6.570;2023-05-31T06:57:17;102853.03;;;12.90;100.00
20909;BME280;10614;53.198;6.570;2023-05-31T06:59:19;102847.69;;;12.92;100.00
20909;BME280;10614;53.198;6.570;2023-05-31T07:01:22;102835.31;;;12.95;100.00
20909;BME280;10614;53.198;6.570;2023-05-31T07:03:24;102850.09;;;13.05;100.00
20909;BME280;10614;53.198;6.570;2023-05-31T07:05:27;102854.38;;;13.13;100.00
20909;BME280;10614;53.198;6.570;2023-05-31T07:07:29;102844.72;;;13.12;100.00
20909;BME280;10614;53.198;6.570;2023-05-31T07:09:31;102845.47;;;13.17;100.00
20909;BME280;10614;53.198;6.570;2023-05-31T07:11:33;102856.81;;;13.23;100.00
20909;BME280;10614;53.198;6.570;2023-05-31T07:13:36;102847.97;;;13.24;100.00
20909;BME280;10614;53.198;6.570;2023-05-31T07:15:38;102852.34;;;13.28;100.00
20909;BME280;10614;53.198;6.570;2023-05-31T07:17:40;102854.84;;;13.36;100.00
20909;BME280;10614;53.198;6.570;2023-05-31T07:19:45;102844.06;;;13.45;100.00
20909;BME280;10614;53.198;6.570;2023-05-31T07:21:47;102848.41;;;13.49;100.00
20909;BME280;10614;53.198;6.570;2023-05-31T07:23:49;102847.41;;;13.55;100.00
20909;BME280;10614;53.198;6.570;2023-05-31T07:25:52;102818.56;;;13.41;100.00
20909;BME280;10614;53.198;6.570;2023-05-31T07:27:54;102832.34;;;13.59;100.00
20909;BME280;10614;53.198;6.570;2023-05-31T07:29:58;102847.09;;;13.70;100.00
20909;BME280;10614;53.198;6.570;2023-05-31T07:32:00;102851.47;;;13.71;100.00
20909;BME280;10614;53.198;6.570;2023-05-31T07:34:04;102820.81;;;13.61;100.00
20909;BME280;10614;53.198;6.570;2023-05-31T07:36:07;102831.97;;;13.76;100.00
20909;BME280;10614;53.198;6.570;2023-05-31T07:38:12;102834.44;;;13.83;100.00
20909;BME280;10614;53.198;6.570;2023-05-31T07:40:15;102841.41;;;13.89;100.00
20909;BME280;10614;53.198;6.570;2023-05-31T07:42:21;102835.97;;;13.95;100.00
20909;BME280;10614;53.198;6.570;2023-05-31T07:44:24;102821.00;;;13.92;100.00
20909;BME280;10614;53.198;6.570;2023-05-31T07:46:28;102830.72;;;13.93;100.00
20909;BME280;10614;53.198;6.570;2023-05-31T07:48:31;102836.66;;;14.05;100.00
20909;BME280;10614;53.198;6.570;2023-05-31T07:50:34;102838.28;;;14.09;100.00
20909;BME280;10614;53.198;6.570;2023-05-31T07:52:39;102830.44;;;14.06;100.00
20909;BME280;10614;53.198;6.570;2023-05-31T07:54:41;102813.84;;;13.98;100.00
20909;BME280;10614;53.198;6.570;2023-05-31T07:56:47;102835.50;;;14.15;100.00
20909;BME280;10614;53.198;6.570;2023-05-31T07:58:53;102819.53;;;14.18;100.00
20909;BME280;10614;53.198;6.570;2023-05-31T08:00:59;102835.13;;;14.32;100.00
20909;BME280;10614;53.198;6.570;2023-05-31T08:03:03;102835.00;;;14.36;100.00
20909;BME280;10614;53.198;6.570;2023-05-31T08:05:08;102814.78;;;14.32;100.00
20909;BME280;10614;53.198;6.570;2023-05-31T08:07:10;102821.72;;;14.38;100.00
20909;BME280;10614;53.198;6.570;2023-05-31T08:09:12;102816.44;;;14.38;100.00
20909;BME280;10614;53.198;6.570;2023-05-31T08:11:15;102796.28;;;14.31;100.00
20909;BME280;10614;53.198;6.570;2023-05-31T08:13:16;102822.28;;;14.51;100.00
20909;BME280;10614;53.198;6.570;2023-05-31T08:15:20;102822.09;;;14.60;100.00
20909;BME280;10614;53.198;6.570;2023-05-31T08:17:24;102822.00;;;14.63;100.00
20909;BME280;10614;53.198;6.570;2023-05-31T08:19:29;102829.94;;;14.63;100.00
20909;BME280;10614;53.198;6.570;2023-05-31T08:21:35;102832.53;;;14.66;100.00
20909;BME280;10614;53.198;6.570;2023-05-31T08:23:39;102825.47;;;14.67;100.00
20909;BME280;10614;53.198;6.570;2023-05-31T08:25:41;102815.72;;;14.67;100.00
20909;BME280;10614;53.198;6.570;2023-05-31T08:27:44;102809.53;;;14.68;100.00
20909;BME280;10614;53.198;6.570;2023-05-31T08:29:47;102818.97;;;14.78;100.00
20909;BME280;10614;53.198;6.570;2023-05-31T08:31:49;102801.47;;;14.71;100.00
20909;BME280;10614;53.198;6.570;2023-05-31T08:33:55;102805.59;;;14.83;100.00
20909;BME280;10614;53.198;6.570;2023-05-31T08:36:01;102788.72;;;14.86;100.00
20909;BME280;10614;53.198;6.570;2023-05-31T08:38:06;102816.31;;;15.11;100.00
20909;BME280;10614;53.198;6.570;2023-05-31T08:40:10;102823.66;;;15.33;100.00
20909;BME280;10614;53.198;6.570;2023-05-31T08:42:20;102785.78;;;15.28;100.00
20909;BME280;10614;53.198;6.570;2023-05-31T08:44:24;102814.91;;;15.60;100.00
20909;BME280;10614;53.198;6.570;2023-05-31T08:46:28;102812.00;;;15.71;100.00
20909;BME280;10614;53.198;6.570;2023-05-31T08:48:35;102811.31;;;15.93;100.00
20909;BME280;10614;53.198;6.570;2023-05-31T08:50:41;102805.63;;;16.05;100.00
20909;BME280;10614;53.198;6.570;2023-05-31T08:52:46;102787.19;;;15.99;100.00
20909;BME280;10614;53.198;6.570;2023-05-31T08:55:03;102812.22;;;16.20;100.00
20909;BME280;10614;53.198;6.570;2023-05-31T08:57:10;102813.53;;;16.35;100.00
20909;BME280;10614;53.198;6.570;2023-05-31T08:59:17;102821.75;;;16.54;100.00
20909;BME280;10614;53.198;6.570;2023-05-31T09:01:22;102814.75;;;16.76;100.00
20909;BME280;10614;53.198;6.570;2023-05-31T09:03:28;102816.72;;;16.98;100.00
20909;BME280;10614;53.198;6.570;2023-05-31T09:05:30;102817.63;;;17.22;100.00
20909;BME280;10614;53.198;6.570;2023-05-31T09:07:33;102815.44;;;17.33;100.00
20909;BME280;10614;53.198;6.570;2023-05-31T09:09:39;102819.50;;;17.43;100.00
20909;BME280;10614;53.198;6.570;2023-05-31T09:11:42;102788.06;;;17.29;100.00
20909;BME280;10614;53.198;6.570;2023-05-31T09:13:44;102811.38;;;17.46;100.00
20909;BME280;10614;53.198;6.570;2023-05-31T09:15:51;102799.81;;;17.47;99.28
20909;BME280;10614;53.198;6.570;2023-05-31T09:17:56;102813.81;;;17.52;97.15
20909;BME280;10614;53.198;6.570;2023-05-31T09:20:02;102813.69;;;17.56;97.48
20909;BME280;10614;53.198;6.570;2023-05-31T09:22:06;102795.47;;;17.45;96.78
20909;BME280;10614;53.198;6.570;2023-05-31T09:24:12;102809.88;;;17.63;96.51
20909;BME280;10614;53.198;6.570;2023-05-31T09:26:16;102808.84;;;17.67;97.27
20909;BME280;10614;53.198;6.570;2023-05-31T09:28:19;102785.41;;;17.53;96.53
20909;BME280;10614;53.198;6.570;2023-05-31T09:30:24;102812.34;;;17.67;96.20
20909;BME280;10614;53.198;6.570;2023-05-31T09:32:26;102810.41;;;17.72;95.28
20909;BME280;10614;53.198;6.570;2023-05-31T09:34:28;102782.28;;;17.65;95.77
20909;BME280;10614;53.198;6.570;2023-05-31T09:36:31;102805.84;;;17.75;93.77
20909;BME280;10614;53.198;6.570;2023-05-31T09:38:36;102822.63;;;17.55;93.25
20909;BME280;10614;53.198;6.570;2023-05-31T09:40:38;102803.97;;;17.31;93.75
20909;BME280;10614;53.198;6.570;2023-05-31T09:42:49;102794.38;;;17.02;94.63
20909;BME280;10614;53.198;6.570;2023-05-31T09:44:52;102797.38;;;16.93;95.00
20909;BME280;10614;53.198;6.570;2023-05-31T09:46:56;102810.75;;;16.91;96.09
20909;BME280;10614;53.198;6.570;2023-05-31T09:49:01;102810.09;;;16.84;96.81
20909;BME280;10614;53.198;6.570;2023-05-31T09:51:09;102807.84;;;16.72;96.04
20909;BME280;10614;53.198;6.570;2023-05-31T09:53:16;102781.88;;;16.54;97.58
20909;BME280;10614;53.198;6.570;2023-05-31T09:55:21;102813.47;;;16.63;98.06
20909;BME280;10614;53.198;6.570;2023-05-31T09:57:30;102787.66;;;16.40;97.12
20909;BME280;10614;53.198;6.570;2023-05-31T09:59:34;102798.31;;;16.38;98.24
20909;BME280;10614;53.198;6.570;2023-05-31T10:01:36;102811.53;;;16.41;98.13
20909;BME280;10614;53.198;6.570;2023-05-31T10:03:39;102794.28;;;16.27;98.71
20909;BME280;10614;53.198;6.570;2023-05-31T10:05:42;102810.88;;;16.35;98.61
20909;BME280;10614;53.198;6.570;2023-05-31T10:07:45;102805.63;;;16.32;98.83
20909;BME280;10614;53.198;6.570;2023-05-31T10:09:48;102807.28;;;16.36;98.78
20909;BME280;10614;53.198;6.570;2023-05-31T10:12:00;102800.16;;;16.36;99.99
20909;BME280;10614;53.198;6.570;2023-05-31T10:14:07;102807.78;;;16.47;99.96
20909;BME280;10614;53.198;6.570;2023-05-31T10:16:17;102790.28;;;16.41;98.13
20909;BME280;10614;53.198;6.570;2023-05-31T10:18:21;102775.00;;;16.20;97.79
20909;BME280;10614;53.198;6.570;2023-05-31T10:20:34;102803.56;;;16.41;97.07
20909;BME280;10614;53.198;6.570;2023-05-31T10:22:44;102793.84;;;16.40;97.35
20909;BME280;10614;53.198;6.570;2023-05-31T10:24:51;102791.69;;;16.52;98.26
20909;BME280;10614;53.198;6.570;2023-05-31T10:26:59;102788.31;;;16.46;97.43
20909;BME280;10614;53.198;6.570;2023-05-31T10:29:12;102791.72;;;16.50;96.09
20909;BME280;10614;53.198;6.570;2023-05-31T10:31:18;102774.41;;;16.38;96.38
20909;BME280;10614;53.198;6.570;2023-05-31T10:33:28;102784.56;;;16.52;96.05
20909;BME280;10614;53.198;6.570;2023-05-31T10:35:32;102771.41;;;16.49;97.25
20909;BME280;10614;53.198;6.570;2023-05-31T10:37:35;102782.22;;;16.70;97.82
20909;BME280;10614;53.198;6.570;2023-05-31T10:39:44;102797.63;;;16.86;94.92
20909;BME280;10614;53.198;6.570;2023-05-31T10:41:55;102785.28;;;16.84;93.98
20909;BME280;10614;53.198;6.570;2023-05-31T10:44:04;102796.34;;;16.97;93.04
20909;BME280;10614;53.198;6.570;2023-05-31T10:46:13;102795.13;;;17.07;94.17
20909;BME280;10614;53.198;6.570;2023-05-31T10:48:24;102789.50;;;17.15;92.98
20909;BME280;10614;53.198;6.570;2023-05-31T10:50:28;102795.34;;;17.24;93.52
20909;BME280;10614;53.198;6.570;2023-05-31T10:52:48;102780.38;;;17.22;92.23
20909;BME280;10614;53.198;6.570;2023-05-31T10:55:19;102787.78;;;17.37;90.95
20909;BME280;10614;53.198;6.570;2023-05-31T10:57:27;102783.66;;;17.52;91.96
20909;BME280;10614;53.198;6.570;2023-05-31T10:59:40;102778.50;;;17.71;93.34
20909;BME280;10614;53.198;6.570;2023-05-31T11:01:45;102770.03;;;17.83;91.76